Time;durP1;ratioP1;P1;durP2;ratioP2;P2;SDS_P1;SDS_P2;PMS_P1;PMS_P2;Temp;Humidity;BMP_temperature;BMP_pressure;BME280_temperature;BME280_humidity;BME280_pressure;Samples;Min_cycle;Max_cycle;Signal;HPM_P1;HPM_P2
2022/03/28 00:05:03;;;;;;;12.63;3.63;;;;;;;6.72;50.92;101361.88;10256449;28;20258;-71
2022/03/28 00:10:06;;;;;;;11.77;4.27;;;;;;;6.69;50.50;101354.06;10261509;28;20226;-75
2022/03/28 00:15:10;;;;;;;9.53;4.37;;;;;;;6.69;50.32;101354.06;10257893;28;20303;-72
2022/03/28 00:20:16;;;;;;;10.53;4.20;;;;;;;6.61;50.35;101340.13;10264816;29;20212;-70
2022/03/28 00:25:20;;;;;;;10.47;3.87;;;;;;;6.65;51.00;101335.91;10264509;29;20282;-73
2022/03/28 00:30:23;;;;;;;10.97;3.70;;;;;;;6.66;50.97;101323.03;10264037;29;20230;-75
2022/03/28 00:35:29;;;;;;;9.40;3.40;;;;;;;6.61;50.61;101318.66;10264070;29;20234;-73
2022/03/28 00:40:33;;;;;;;12.17;4.17;;;;;;;6.59;51.33;101312.56;10269845;28;20224;-72
2022/03/28 00:45:37;;;;;;;12.60;4.20;;;;;;;6.60;50.90;101301.41;10263295;28;20220;-72
2022/03/28 00:50:42;;;;;;;10.20;3.50;;;;;;;6.54;51.25;101290.97;10263275;29;20228;-73
2022/03/28 00:55:46;;;;;;;9.73;4.07;;;;;;;6.54;51.04;101283.25;10263080;29;20232;-77
2022/03/28 01:00:49;;;;;;;11.20;3.67;;;;;;;6.54;50.85;101265.19;10263467;28;20328;-72
2022/03/28 01:05:54;;;;;;;11.03;4.00;;;;;;;6.59;50.64;101256.69;10262720;28;20575;-74
2022/03/28 01:11:02;;;;;;;11.17;4.07;;;;;;;6.64;50.50;101246.47;10266368;28;20224;-74
2022/03/28 01:16:07;;;;;;;8.03;3.53;;;;;;;6.69;50.56;101239.69;10262564;28;20212;-74
2022/03/28 01:21:12;;;;;;;9.40;3.47;;;;;;;6.77;50.16;101223.53;10262439;28;20655;-73
2022/03/28 01:26:16;;;;;;;12.17;3.80;;;;;;;6.76;49.98;101224.38;10261116;28;20216;-74
2022/03/28 01:31:20;;;;;;;7.40;3.20;;;;;;;6.83;50.08;101212.47;10262579;28;20220;-73
2022/03/28 01:36:26;;;;;;;9.77;3.60;;;;;;;6.93;49.75;101199.75;10261898;29;20331;-71
2022/03/28 01:41:30;;;;;;;9.53;3.20;;;;;;;7.07;49.28;101197.41;10266318;29;20296;-71
2022/03/28 01:46:40;;;;;;;7.90;2.90;;;;;;;7.27;48.15;101187.41;10261700;28;20239;-72
2022/03/28 01:51:46;;;;;;;7.67;2.83;;;;;;;7.51;47.45;101173.19;10261186;29;20216;-74
2022/03/28 01:56:50;;;;;;;8.60;2.87;;;;;;;7.97;46.02;101159.22;10260989;29;20224;-76
2022/03/28 02:01:53;;;;;;;9.00;3.07;;;;;;;8.12;45.40;101146.47;10260419;28;20243;-76
2022/03/28 02:06:58;;;;;;;12.33;3.60;;;;;;;8.18;45.38;101141.34;10260766;29;20307;-75
2022/03/28 02:12:01;;;;;;;9.50;3.07;;;;;;;8.40;45.12;101142.53;10264467;28;20283;-74
2022/03/28 02:17:05;;;;;;;9.17;3.13;;;;;;;8.53;45.24;101134.91;10261578;29;20226;-74
2022/03/28 02:22:10;;;;;;;8.60;3.73;;;;;;;8.65;44.26;101140.22;10260686;29;20232;-72
2022/03/28 02:27:14;;;;;;;7.83;2.97;;;;;;;8.67;43.94;101133.34;10260338;29;20216;-75
2022/03/28 02:32:17;;;;;;;9.73;3.53;;;;;;;8.61;44.37;101132.41;10260131;28;20344;-73
2022/03/28 02:37:23;;;;;;;33.93;12.97;;;;;;;8.58;45.03;101133.22;10259197;28;20231;-76
2022/03/28 02:42:27;;;;;;;9.57;3.70;;;;;;;8.57;44.74;101117.69;10260170;28;20239;-72
2022/03/28 02:47:30;;;;;;;8.97;3.10;;;;;;;8.55;45.42;101127.16;10262109;28;20231;-74
2022/03/28 02:52:34;;;;;;;11.73;3.97;;;;;;;8.41;45.79;101124.44;10259211;28;20234;-73
2022/03/28 02:57:38;;;;;;;7.73;3.30;;;;;;;8.32;45.91;101113.13;10258537;28;20215;-72
2022/03/28 03:02:43;;;;;;;9.23;3.83;;;;;;;8.42;45.64;101117.56;10258140;28;20244;-74
2022/03/28 03:07:50;;;;;;;12.03;3.90;;;;;;;8.30;46.51;101105.34;10258298;29;20227;-74
2022/03/28 03:12:54;;;;;;;11.57;4.07;;;;;;;8.19;46.49;101102.63;10258044;28;20232;-71
2022/03/28 03:17:57;;;;;;;11.23;3.80;;;;;;;8.21;46.90;101100.06;10261858;29;20299;-75
2022/03/28 03:23:02;;;;;;;11.47;3.83;;;;;;;8.13;47.31;101091.31;10258037;28;20239;-71
2022/03/28 03:28:05;;;;;;;11.97;4.03;;;;;;;8.05;47.39;101088.66;10257744;29;20222;-74
2022/03/28 03:33:08;;;;;;;10.27;3.90;;;;;;;8.00;47.80;101085.16;10257408;29;20224;-71
2022/03/28 03:38:13;;;;;;;14.27;4.23;;;;;;;7.86;48.29;101078.97;10256657;28;20313;-71
2022/03/28 03:43:16;;;;;;;11.27;4.07;;;;;;;7.87;48.68;101077.22;10257301;29;20298;-70
2022/03/28 03:48:20;;;;;;;10.87;4.10;;;;;;;7.80;49.07;101072.84;10262109;28;20728;-72
2022/03/28 03:53:24;;;;;;;12.57;4.37;;;;;;;7.87;48.95;101062.59;10256361;28;20234;-73
2022/03/28 03:58:28;;;;;;;11.17;4.20;;;;;;;8.01;49.37;101073.09;10256546;28;20220;-71
2022/03/28 04:03:33;;;;;;;12.60;4.10;;;;;;;7.87;49.31;101059.13;10256441;29;20251;-76
2022/03/28 04:08:37;;;;;;;10.67;4.63;;;;;;;7.86;49.70;101049.66;10256567;28;20553;-76
2022/03/28 04:13:41;;;;;;;12.23;4.13;;;;;;;7.88;50.19;101047.97;10256471;29;20246;-69
2022/03/28 04:18:44;;;;;;;12.13;4.47;;;;;;;7.73;50.96;101042.63;10259377;28;20216;-74
2022/03/28 04:23:49;;;;;;;11.43;4.07;;;;;;;7.77;50.82;101039.19;10258213;28;20297;-75
2022/03/28 04:28:52;;;;;;;13.77;4.50;;;;;;;7.89;50.97;101039.34;10256049;29;20220;-72
2022/03/28 04:33:55;;;;;;;12.50;4.33;;;;;;;7.81;51.08;101031.53;10255875;29;20230;-73
2022/03/28 04:39:00;;;;;;;11.13;3.97;;;;;;;7.94;51.74;101027.34;10255780;29;20536;-74
2022/03/28 04:44:04;;;;;;;15.73;4.80;;;;;;;7.82;52.18;101019.44;10255881;28;20232;-73
2022/03/28 04:49:10;;;;;;;12.90;3.40;;;;;;;7.85;52.92;101017.75;10255915;29;20228;-72
2022/03/28 04:54:14;;;;;;;14.97;4.77;;;;;;;7.93;52.95;101013.56;10258367;28;20311;-73
2022/03/28 04:59:18;;;;;;;12.03;4.37;;;;;;;8.02;53.12;101007.63;10255521;29;20226;-72
2022/03/28 05:04:21;;;;;;;12.63;4.50;;;;;;;7.95;53.28;101013.59;10261375;28;20248;-71
2022/03/28 05:09:26;;;;;;;13.30;4.13;;;;;;;7.96;53.97;101020.47;10262777;28;20536;-76
2022/03/28 05:14:29;;;;;;;16.77;5.40;;;;;;;8.00;54.23;101007.63;10262483;29;20232;-71
2022/03/28 05:19:32;;;;;;;10.40;4.57;;;;;;;8.01;54.55;101008.47;10262145;29;20217;-71
2022/03/28 05:24:37;;;;;;;13.40;4.47;;;;;;;8.02;55.31;101005.88;10264193;29;20238;-66
2022/03/28 05:29:40;;;;;;;12.97;4.93;;;;;;;8.05;55.23;101005.94;10261075;28;20212;-67
2022/03/28 05:34:43;;;;;;;12.17;4.67;;;;;;;8.18;55.13;101001.75;10261721;28;20555;-66
2022/03/28 05:39:48;;;;;;;13.17;5.33;;;;;;;8.23;55.81;101001.81;9916598;28;10000349;-64
2022/03/28 05:44:52;;;;;;;14.00;5.00;;;;;;;8.23;55.70;101005.28;10258171;29;20243;-69
2022/03/28 05:49:55;;;;;;;10.23;4.67;;;;;;;8.44;55.40;101018.41;10257035;28;20389;-72
2022/03/28 05:55:00;;;;;;;12.07;5.23;;;;;;;8.47;55.97;101015.88;10266226;29;20216;-72
2022/03/28 06:00:05;;;;;;;15.97;5.00;;;;;;;8.48;56.26;101006.38;10258357;28;20208;-74
2022/03/28 06:05:10;;;;;;;13.73;5.27;;;;;;;8.66;56.15;101003.94;10257689;28;20565;-72
2022/03/28 06:10:16;;;;;;;15.87;5.60;;;;;;;8.67;56.71;100997.91;10257323;28;20212;-70
2022/03/28 06:15:19;;;;;;;13.57;5.20;;;;;;;8.68;56.82;100997.06;10256556;28;20238;-72
2022/03/28 06:20:23;;;;;;;17.93;5.80;;;;;;;8.77;56.67;100979.00;10256672;28;20224;-73
2022/03/28 06:25:29;;;;;;;17.63;5.83;;;;;;;8.77;57.37;100973.81;10267486;29;20231;-71
2022/03/28 06:30:35;;;;;;;15.37;5.23;;;;;;;8.85;58.06;100977.34;10265104;29;20286;-73
2022/03/28 06:35:42;;;;;;;13.33;6.50;;;;;;;8.86;58.71;100969.59;10256851;28;20303;-72
2022/03/28 06:40:47;;;;;;;12.00;5.97;;;;;;;9.01;59.25;100963.63;10254947;29;20208;-73
2022/03/28 06:45:51;;;;;;;12.27;5.57;;;;;;;9.15;58.81;100961.97;10255445;28;20287;-75
2022/03/28 06:50:55;;;;;;;18.60;5.63;;;;;;;9.17;60.38;100950.78;10253674;28;20200;-71
2022/03/28 06:56:01;;;;;;;14.73;5.80;;;;;;;9.19;60.96;100950.78;10255505;29;20347;-72
2022/03/28 07:01:04;;;;;;;17.87;7.17;;;;;;;9.40;60.84;100940.53;10257174;28;20177;-75
2022/03/28 07:06:08;;;;;;;12.63;5.83;;;;;;;9.60;61.32;100938.00;10253727;28;20232;-71
2022/03/28 07:11:13;;;;;;;17.73;6.17;;;;;;;9.60;61.65;100930.22;10254497;29;20203;-71
2022/03/28 07:16:16;;;;;;;14.53;6.47;;;;;;;9.60;62.19;100925.91;10253370;29;20192;-72
2022/03/28 07:21:20;;;;;;;12.10;5.37;;;;;;;9.78;61.91;100910.41;10254200;28;20284;-72
2022/03/28 07:26:24;;;;;;;15.53;6.20;;;;;;;9.80;61.79;100903.47;10255556;28;20212;-72
2022/03/28 07:31:28;;;;;;;16.27;6.07;;;;;;;9.96;62.11;100931.16;10256491;29;20263;-73
2022/03/28 07:36:31;;;;;;;20.37;6.83;;;;;;;10.04;62.68;100903.50;10254007;28;20694;-71
2022/03/28 07:41:36;;;;;;;17.40;7.63;;;;;;;10.20;62.59;100889.72;10253900;28;20216;-73
2022/03/28 07:46:40;;;;;;;14.87;6.03;;;;;;;10.42;63.36;100888.00;10254207;29;20234;-73
2022/03/28 07:51:45;;;;;;;17.53;6.53;;;;;;;10.40;64.49;100875.03;10253002;28;20294;-74
2022/03/28 07:56:49;;;;;;;16.00;7.10;;;;;;;10.54;65.04;100858.56;10253291;28;20227;-76
2022/03/28 08:01:53;;;;;;;19.27;6.43;;;;;;;10.64;65.03;100852.47;10253915;28;20299;-72
2022/03/28 08:07:03;;;;;;;13.70;6.27;;;;;;;10.85;64.81;100844.63;10252714;29;20227;-73
2022/03/28 08:12:11;;;;;;;17.67;6.53;;;;;;;11.07;64.65;100834.16;10252440;28;20220;-74
2022/03/28 08:17:14;;;;;;;16.20;6.77;;;;;;;11.16;64.46;100839.31;10252469;28;20298;-75
2022/03/28 08:22:18;;;;;;;18.67;6.50;;;;;;;11.32;65.17;100834.91;10252068;28;20212;-75
2022/03/28 08:27:23;;;;;;;19.87;6.60;;;;;;;11.45;65.05;100833.94;10253845;28;20678;-73
2022/03/28 08:32:26;;;;;;;14.70;6.60;;;;;;;11.56;64.82;100820.00;10253980;28;20227;-76
2022/03/28 08:37:31;;;;;;;14.90;6.37;;;;;;;11.75;64.56;100806.91;10253516;28;20224;-70
2022/03/28 08:42:39;;;;;;;19.60;8.80;;;;;;;11.90;64.19;100797.25;10259884;28;20219;-76
2022/03/28 08:47:45;;;;;;;13.87;6.60;;;;;;;12.06;63.69;100797.97;10259825;28;20239;-73
2022/03/28 08:53:08;;;;;;;19.60;6.90;;;;;;;12.20;62.94;100789.16;10259312;29;20623;-73
2022/03/28 08:58:14;;;;;;;17.93;7.03;;;;;;;12.46;62.69;100781.94;10263410;28;20222;-73
2022/03/28 09:03:18;;;;;;;13.90;6.00;;;;;;;12.62;61.74;100780.91;10258572;29;20228;-74
2022/03/28 09:08:24;;;;;;;13.20;6.40;;;;;;;12.78;60.31;100769.41;10258458;28;20228;-73
2022/03/28 09:13:44;;;;;;;17.80;6.13;;;;;;;12.98;60.06;100763.09;10255877;29;20212;-75
2022/03/28 09:18:47;;;;;;;15.97;5.77;;;;;;;13.17;59.04;100748.94;10258151;28;20287;-73
2022/03/28 09:23:51;;;;;;;34.50;13.53;;;;;;;13.43;56.15;100741.59;10259237;29;20228;-73
2022/03/28 09:28:58;;;;;;;14.53;6.13;;;;;;;13.94;53.64;100720.72;10259429;28;20239;-74
2022/03/28 09:34:06;;;;;;;15.27;4.87;;;;;;;14.60;52.75;100722.97;10258748;28;20212;-74
2022/03/28 09:39:11;;;;;;;17.53;5.37;;;;;;;15.00;49.60;100698.53;10258382;28;20224;-75
2022/03/28 09:44:16;;;;;;;12.87;5.53;;;;;;;15.42;49.04;100694.09;10257960;29;20216;-73
2022/03/28 09:49:26;;;;;;;15.53;4.67;;;;;;;15.86;47.53;100699.06;10256999;28;20232;-74
2022/03/28 09:54:30;;;;;;;19.57;6.67;;;;;;;16.19;46.04;100674.59;10260269;29;20218;-72
2022/03/28 09:59:39;;;;;;;13.70;4.90;;;;;;;16.92;45.03;100668.06;10259308;29;20216;-72
2022/03/28 10:04:46;;;;;;;13.57;4.43;;;;;;;17.26;42.70;100663.47;10260029;29;20240;-74
2022/03/28 10:09:51;;;;;;;14.47;6.10;;;;;;;17.13;41.72;100643.81;10260432;29;20304;-73
2022/03/28 10:14:58;;;;;;;11.47;4.63;;;;;;;17.51;41.41;100650.44;10260057;29;20528;-73
2022/03/28 10:20:02;;;;;;;11.83;4.90;;;;;;;18.07;40.30;100635.31;10261828;29;20646;-72
2022/03/28 10:25:28;;;;;;;16.17;7.77;;;;;;;18.85;39.87;100642.00;10261346;28;20234;-65
2022/03/28 10:30:33;;;;;;;11.53;5.37;;;;;;;18.89;38.20;100617.28;10259649;29;20594;-73
2022/03/28 10:35:37;;;;;;;9.30;4.40;;;;;;;18.64;39.13;100617.41;10259432;29;20227;-70
2022/03/28 10:40:53;;;;;;;14.03;5.20;;;;;;;18.95;39.27;100609.16;10256442;28;20220;-72
2022/03/28 10:45:59;;;;;;;12.10;4.37;;;;;;;19.09;38.48;100605.06;10255878;28;20255;-71
2022/03/28 10:51:08;;;;;;;16.70;5.30;;;;;;;19.40;38.39;100588.88;10258053;28;20231;-72
2022/03/28 10:56:14;;;;;;;12.47;5.30;;;;;;;19.83;38.24;100572.91;10255056;28;20255;-72
2022/03/28 11:01:25;;;;;;;16.27;6.77;;;;;;;20.24;37.47;100589.53;10255105;28;20244;-67
2022/03/28 11:07:03;;;;;;;26.73;10.43;;;;;;;20.74;37.28;100544.94;10254317;28;20244;-75
2022/03/28 11:12:12;;;;;;;18.95;4.55;;;;;;;21.54;36.63;100570.78;10245220;28;20378;-73
2022/03/28 11:17:21;;;;;;;16.27;3.58;;;;;;;22.18;34.74;100526.81;10255607;28;20226;-73
2022/03/28 11:22:52;;;;;;;12.60;3.27;;;;;;;22.11;33.92;100503.44;10257594;28;20227;-73
2022/03/28 11:28:03;;;;;;;17.55;3.83;;;;;;;22.76;33.80;100500.63;10253970;28;20220;-74
2022/03/28 11:33:12;;;;;;;146.07;94.07;;;;;;;24.19;32.81;100483.91;10246516;29;20220;-69
2022/03/28 11:38:20;;;;;;;14.35;4.32;;;;;;;24.31;31.24;100485.75;10253572;28;20219;-69
2022/03/28 11:43:28;;;;;;;18.92;3.25;;;;;;;24.44;31.58;100472.53;10254015;28;20216;-71
2022/03/28 11:48:33;;;;;;;16.75;3.50;;;;;;;24.94;30.99;100462.09;10248324;29;20224;-74
2022/03/28 11:53:36;;;;;;;21.95;3.13;;;;;;;24.08;31.50;100453.66;10253346;28;20650;-71
2022/03/28 11:58:40;;;;;;;11.55;2.72;;;;;;;25.04;31.14;100436.59;10253225;28;20614;-72
2022/03/28 12:03:50;;;;;;;;;;;;;;;25.56;29.40;100444.53;10253245;28;20055;-71
2022/03/28 12:08:53;;;;;;;;;;;;;;;25.33;29.77;100422.19;10253093;28;19926;-71
2022/03/28 12:13:56;;;;;;;;;;;;;;;25.54;28.90;100415.38;10279081;28;19922;-71
2022/03/28 12:19:01;;;;;;;;;;;;;;;26.83;28.93;100388.06;10259622;28;19926;-74
2022/03/28 12:24:06;;;;;;;;;;;;;;;27.64;27.32;100384.28;10253123;29;20341;-73
2022/03/28 12:29:11;;;;;;;;;;;;;;;27.07;27.09;100359.53;10252997;29;19926;-73
2022/03/28 12:34:17;;;;;;;;;;;;;;;26.23;28.12;100372.22;10255989;29;19922;-72
2022/03/28 12:39:20;;;;;;;;;;;;;;;25.92;29.74;100356.78;10255653;29;19937;-70
2022/03/28 12:44:24;;;;;;;;;;;;;;;25.39;28.95;100351.81;10257393;29;19922;-73
2022/03/28 12:49:28;;;;;;;;;;;;;;;25.51;29.18;100348.28;10255555;28;19932;-71
2022/03/28 12:54:31;;;;;;;;;;;;;;;27.57;26.26;100332.41;10255629;28;20233;-71
2022/03/28 12:59:35;;;;;;;;;;;;;;;28.21;24.84;100344.03;10255350;28;20009;-73
2022/03/28 13:04:46;;;;;;;;;;;;;;;28.07;25.71;100320.28;10255717;28;19922;-74
2022/03/28 13:09:54;;;;;;;;;;;;;;;26.65;27.37;100317.50;10255287;28;20009;-73
2022/03/28 13:14:57;;;;;;;;;;;;;;;25.38;27.53;100304.94;10255400;29;20036;-71
2022/03/28 13:20:03;;;;;;;;;;;;;;;24.51;28.44;100311.91;10254950;29;19932;-73
2022/03/28 13:25:07;;;;;;;;;;;;;;;24.05;28.79;100316.81;10258110;28;19930;-72
2022/03/28 13:30:16;;;;;;;;;;;;;;;23.71;29.62;100296.91;9916612;28;10000210;-72
2022/03/28 13:35:22;;;;;;;;;;;;;;;23.64;29.79;100289.47;10259159;29;19929;-70
2022/03/28 13:40:26;;;;;;;;;;;;;;;23.25;29.82;100292.84;10260589;29;19922;-70
2022/03/28 13:45:30;;;;;;;;;;;;;;;22.95;30.42;100281.53;10258503;29;20438;-69
2022/03/28 13:50:35;;;;;;;;;;;;;;;22.70;29.73;100274.22;10258285;29;19923;-71
2022/03/28 13:55:58;;;;;;;;;;;;;;;22.55;30.48;100248.72;10256496;29;19941;-63
2022/03/28 14:01:02;;;;;;;;;;;;;;;22.32;30.97;100237.78;10256853;28;20392;-66
2022/03/28 14:06:07;;;;;;;14.73;4.55;;;;;;;22.15;31.16;100224.72;10256533;28;20194;-70
2022/03/28 14:11:12;;;;;;;17.55;3.45;;;;;;;21.43;30.84;100233.28;10255618;28;20208;-68
2022/03/28 14:16:16;;;;;;;6.63;1.88;;;;;;;21.81;31.12;100209.13;10256263;29;20242;-66
2022/03/28 14:21:20;;;;;;;14.45;2.33;;;;;;;21.91;31.00;100207.66;10255887;28;20224;-69
2022/03/28 14:26:24;;;;;;;10.07;2.20;;;;;;;22.23;30.43;100194.22;10255561;28;20327;-66
2022/03/28 14:31:27;;;;;;;11.40;2.70;;;;;;;22.11;30.29;100191.44;10252729;28;20609;-65
2022/03/28 14:36:32;;;;;;;8.37;1.87;;;;;;;22.29;29.77;100180.63;10253974;28;20708;-67
2022/03/28 14:41:36;;;;;;;18.33;2.08;;;;;;;21.73;30.34;100181.34;10253542;28;20224;-67
2022/03/28 14:52:01;;;;;;;17.50;2.75;;;;;;;20.89;31.47;100172.97;10248526;28;20254;-69
2022/03/28 14:57:05;;;;;;;8.25;2.30;;;;;;;20.49;32.43;100155.84;10255457;28;20270;-68
2022/03/28 15:02:10;;;;;;;9.93;2.10;;;;;;;20.12;32.66;100137.59;10254723;28;20254;-68
2022/03/28 15:07:19;;;;;;;14.10;1.97;;;;;;;19.69;33.24;100143.38;10254569;29;20232;-67
2022/03/28 15:12:22;;;;;;;6.88;2.10;;;;;;;19.47;33.45;100134.84;10254845;29;20234;-66
2022/03/28 15:17:25;;;;;;;7.50;2.60;;;;;;;19.33;33.76;100127.63;10254206;28;20315;-69
2022/03/28 15:22:31;;;;;;;10.52;2.08;;;;;;;19.20;33.97;100125.66;10253667;28;20230;-71
2022/03/28 15:27:35;;;;;;;9.80;2.50;;;;;;;19.01;33.92;100109.06;10257325;28;20713;-73
2022/03/28 15:32:39;;;;;;;14.20;2.20;;;;;;;19.40;33.40;100105.34;10254295;28;20757;-74
2022/03/28 15:37:43;;;;;;;10.50;2.00;;;;;;;19.96;32.62;100091.91;10256784;28;20319;-73
2022/03/28 15:42:47;;;;;;;10.47;2.00;;;;;;;20.24;32.49;100088.69;10257275;28;20220;-70
2022/03/28 15:47:51;;;;;;;10.83;2.27;;;;;;;20.64;31.78;100073.22;10255991;28;20228;-74
2022/03/28 15:52:55;;;;;;;8.97;2.00;;;;;;;20.64;31.63;100062.69;10256517;28;20228;-67
2022/03/28 15:57:59;;;;;;;12.10;2.10;;;;;;;20.03;32.63;100052.91;10253404;29;20246;-68
2022/03/28 16:03:02;;;;;;;10.90;1.83;;;;;;;19.55;33.47;100058.97;10253254;28;20323;-73
2022/03/28 16:08:07;;;;;;;10.10;2.03;;;;;;;19.27;33.89;100056.84;10252955;29;20318;-65
2022/03/28 16:13:11;;;;;;;24.30;10.47;;;;;;;19.16;34.03;100053.03;10252328;28;20216;-71
2022/03/28 16:18:16;;;;;;;7.30;2.00;;;;;;;18.81;34.08;100059.19;10253289;28;20234;-71
2022/03/28 16:23:24;;;;;;;9.70;2.57;;;;;;;18.61;34.62;100054.03;10255071;28;20295;-72
2022/03/28 16:28:28;;;;;;;11.00;2.20;;;;;;;18.37;35.18;100051.63;10252685;28;20234;-70
2022/03/28 16:33:32;;;;;;;15.27;2.13;;;;;;;18.13;35.60;100041.38;10252920;28;20283;-71
2022/03/28 16:38:37;;;;;;;10.97;2.67;;;;;;;17.94;36.17;100035.25;10252625;28;20204;-69
2022/03/28 16:43:41;;;;;;;5.83;1.70;;;;;;;17.79;36.31;100042.03;10252559;28;20626;-72
2022/03/28 16:48:44;;;;;;;6.00;2.10;;;;;;;17.69;36.17;100035.50;10251914;29;20224;-70
2022/03/28 16:53:49;;;;;;;12.27;2.10;;;;;;;17.57;36.38;100033.41;10250769;28;20299;-70
2022/03/28 16:58:52;;;;;;;8.40;1.67;;;;;;;17.51;36.33;100030.19;10255475;28;20575;-71
2022/03/28 17:03:58;;;;;;;14.33;1.97;;;;;;;17.32;36.48;100027.50;10259357;28;20228;-70
2022/03/28 17:09:03;;;;;;;6.43;1.20;;;;;;;17.23;36.53;100022.63;10259380;29;20215;-73
2022/03/28 17:14:07;;;;;;;7.67;1.60;;;;;;;17.13;36.86;100010.81;10259612;29;20196;-73
2022/03/28 17:19:11;;;;;;;52.67;32.93;;;;;;;17.12;37.13;100030.09;10260034;29;20289;-71
2022/03/28 17:24:16;;;;;;;8.57;2.87;;;;;;;16.97;37.38;100022.88;10259292;28;20674;-72
2022/03/28 17:29:19;;;;;;;10.63;4.43;;;;;;;16.96;37.79;100018.56;10266537;28;20234;-73
2022/03/28 17:34:26;;;;;;;9.60;2.10;;;;;;;16.77;37.86;100007.97;10258992;28;20260;-71
2022/03/28 17:39:32;;;;;;;6.33;2.30;;;;;;;16.72;38.39;100016.94;10257976;28;20304;-74
2022/03/28 17:44:35;;;;;;;11.30;2.27;;;;;;;16.69;38.58;100019.66;10260337;28;20250;-72
2022/03/28 17:49:38;;;;;;;9.73;2.20;;;;;;;16.69;38.81;100022.28;10258120;28;20696;-71
2022/03/28 17:54:45;;;;;;;5.50;2.00;;;;;;;16.61;39.05;100004.25;10257929;28;20715;-72
2022/03/28 17:59:49;;;;;;;7.37;2.33;;;;;;;16.49;39.56;100015.22;10258069;29;20240;-72
2022/03/28 18:04:52;;;;;;;9.87;2.60;;;;;;;16.43;40.19;100017.22;10256439;28;20326;-70
2022/03/28 18:09:57;;;;;;;12.87;2.47;;;;;;;16.37;40.70;100004.34;10256650;28;20232;-68
2022/03/28 18:15:00;;;;;;;12.73;2.27;;;;;;;16.25;41.34;100004.81;10262891;28;20757;-69
2022/03/28 18:20:08;;;;;;;55.83;33.70;;;;;;;16.13;42.63;100011.38;10263209;29;20648;-70
2022/03/28 18:25:15;;;;;;;9.40;3.00;;;;;;;16.14;42.47;100013.09;10259773;28;20231;-71
2022/03/28 18:30:21;;;;;;;10.40;2.37;;;;;;;16.06;43.14;100005.53;10259787;29;20232;-73
2022/03/28 18:35:25;;;;;;;12.93;2.70;;;;;;;16.01;44.20;100011.84;10259427;29;20231;-70
2022/03/28 18:40:30;;;;;;;15.30;3.47;;;;;;;15.99;44.38;99998.81;10259204;29;20217;-71
2022/03/28 18:45:33;;;;;;;15.07;3.00;;;;;;;15.86;44.99;100002.78;10263038;29;20307;-73
2022/03/28 18:50:37;;;;;;;10.63;3.60;;;;;;;15.83;45.08;100012.53;10259274;29;20234;-73
2022/03/28 18:55:46;;;;;;;9.77;2.53;;;;;;;15.73;46.04;100001.56;10258640;29;20362;-70
2022/03/28 19:00:49;;;;;;;9.93;2.63;;;;;;;15.67;46.59;100007.00;10258468;28;20226;-69
2022/03/28 19:06:13;;;;;;;8.43;2.70;;;;;;;15.62;46.83;100011.53;10258044;28;20232;-69
2022/03/28 19:11:20;;;;;;;11.57;3.47;;;;;;;15.54;47.27;100004.88;10258244;28;20637;-74
2022/03/28 19:16:33;;;;;;;11.17;2.83;;;;;;;15.52;47.83;100015.41;10260958;28;20306;-72
2022/03/28 19:21:37;;;;;;;8.70;2.67;;;;;;;15.44;48.25;100004.38;10257497;28;20250;-72
2022/03/28 19:26:45;;;;;;;14.13;4.83;;;;;;;15.41;48.71;100001.84;10257352;28;20258;-71
2022/03/28 19:31:49;;;;;;;19.33;8.90;;;;;;;15.35;49.19;99994.19;10257400;28;20258;-74
2022/03/28 19:36:53;;;;;;;10.03;3.53;;;;;;;15.31;49.02;99999.56;10257200;29;20222;-73
2022/03/28 19:41:58;;;;;;;7.40;3.40;;;;;;;15.23;49.37;99994.63;10256994;28;20238;-71
2022/03/28 19:47:01;;;;;;;9.87;3.30;;;;;;;15.08;50.05;100000.38;10260205;29;20303;-72
2022/03/28 19:52:06;;;;;;;10.73;3.47;;;;;;;15.08;50.15;99996.00;10256493;29;20606;-70
2022/03/28 19:57:20;;;;;;;8.97;3.03;;;;;;;15.01;50.58;99989.25;10256826;29;20222;-73
2022/03/28 20:02:24;;;;;;;10.53;3.27;;;;;;;15.01;50.72;100001.50;10256234;29;20581;-70
2022/03/28 20:07:28;;;;;;;10.87;3.70;;;;;;;14.97;50.95;99995.53;10256372;29;20552;-72
2022/03/28 20:12:37;;;;;;;8.70;3.33;;;;;;;15.07;50.62;99998.66;10256341;29;20683;-71
2022/03/28 20:17:41;;;;;;;15.77;3.50;;;;;;;15.02;50.45;99990.13;10263177;29;20532;-70
2022/03/28 20:22:45;;;;;;;12.53;3.20;;;;;;;14.95;50.49;99986.00;10256097;28;20219;-70
2022/03/28 20:27:50;;;;;;;9.80;3.20;;;;;;;14.89;50.44;99984.44;10253510;29;20216;-72
2022/03/28 20:32:53;;;;;;;9.97;3.20;;;;;;;14.86;50.18;99988.94;10256662;28;20311;-73
2022/03/28 20:37:57;;;;;;;10.00;2.53;;;;;;;14.81;49.24;99983.88;10260736;29;20841;-71
2022/03/28 20:43:02;;;;;;;8.80;2.60;;;;;;;14.71;47.87;99985.06;10261018;28;20302;-71
2022/03/28 20:48:07;;;;;;;10.53;3.23;;;;;;;14.68;47.05;99984.31;10268290;28;20208;-71
2022/03/28 20:53:13;;;;;;;6.60;2.57;;;;;;;14.58;46.69;99983.75;10261745;28;20243;-73
2022/03/28 20:58:18;;;;;;;8.60;2.83;;;;;;;14.47;46.70;99992.84;10260326;28;20310;-71
2022/03/28 21:03:22;;;;;;;8.37;3.53;;;;;;;14.31;47.29;99987.25;10260386;28;20319;-65
2022/03/28 21:08:26;;;;;;;8.03;3.20;;;;;;;14.20;47.19;99991.94;10260407;28;20212;-69
2022/03/28 21:13:31;;;;;;;9.77;3.47;;;;;;;14.06;47.22;99988.88;10260153;28;20299;-68
2022/03/28 21:18:35;;;;;;;9.37;3.00;;;;;;;14.06;47.56;99993.22;10261914;28;20207;-69
2022/03/28 21:23:38;;;;;;;5.63;2.87;;;;;;;13.94;47.95;99990.06;10260371;28;20207;-69
2022/03/28 21:28:43;;;;;;;9.53;3.57;;;;;;;13.79;48.74;99993.13;9917350;28;9999902;-67
2022/03/28 21:33:47;;;;;;;11.60;3.70;;;;;;;13.59;49.61;99992.00;10259790;29;20254;-73
2022/03/28 21:38:50;;;;;;;7.97;4.13;;;;;;;13.52;50.04;99995.69;10262951;29;20192;-73
2022/03/28 21:43:55;;;;;;;10.60;3.50;;;;;;;13.50;50.40;99987.91;10263044;28;20228;-72
2022/03/28 21:48:59;;;;;;;9.70;4.40;;;;;;;13.31;51.39;99986.69;10265335;29;20216;-71
2022/03/28 21:54:02;;;;;;;11.20;3.90;;;;;;;13.20;51.27;99983.50;10262405;29;20234;-71
2022/03/28 21:59:07;;;;;;;13.43;3.90;;;;;;;13.09;52.20;99984.69;10262060;29;20291;-72
2022/03/28 22:04:10;;;;;;;9.67;4.20;;;;;;;13.01;52.71;99979.66;10262884;28;20302;-73
2022/03/28 22:09:18;;;;;;;12.63;4.57;;;;;;;12.87;52.94;99984.38;10261800;29;20223;-71
2022/03/28 22:14:23;;;;;;;12.23;4.37;;;;;;;12.84;53.45;99975.78;10261512;28;20243;-71
2022/03/28 22:19:27;;;;;;;10.07;4.40;;;;;;;12.77;53.39;99962.03;10262777;29;20200;-75
2022/03/28 22:24:30;;;;;;;10.03;4.20;;;;;;;12.56;54.43;99967.81;10261614;29;20200;-74
2022/03/28 22:29:37;;;;;;;10.47;4.30;;;;;;;12.51;54.55;99967.91;10260317;28;20240;-73
2022/03/28 22:34:40;;;;;;;11.03;3.77;;;;;;;12.45;54.73;99964.59;10261163;29;20200;-72
2022/03/28 22:39:43;;;;;;;8.67;4.30;;;;;;;12.28;55.47;99961.53;10260417;29;20208;-72
2022/03/28 22:44:48;;;;;;;10.90;4.67;;;;;;;12.17;56.07;99963.53;10259937;29;20215;-76
2022/03/28 22:49:52;;;;;;;11.03;4.53;;;;;;;12.05;56.80;99964.66;10264025;29;20244;-68
2022/03/28 22:54:55;;;;;;;8.97;4.70;;;;;;;11.98;57.13;99963.09;10259344;28;20279;-70
2022/03/28 23:00:00;;;;;;;11.13;4.83;;;;;;;11.90;57.47;99959.81;10259519;29;20646;-69
2022/03/28 23:05:04;;;;;;;10.80;4.77;;;;;;;11.77;58.30;99957.50;10258532;29;20318;-73
2022/03/28 23:10:09;;;;;;;10.90;5.00;;;;;;;11.56;59.31;99954.41;10258556;29;20278;-72
2022/03/28 23:15:14;;;;;;;11.87;5.57;;;;;;;11.45;59.76;99958.13;10258452;28;20198;-72
2022/03/28 23:20:18;;;;;;;10.47;4.93;;;;;;;11.38;59.97;99953.94;10260058;28;20223;-71
2022/03/28 23:25:23;;;;;;;8.93;5.17;;;;;;;11.26;60.96;99946.38;10259186;29;20216;-75
2022/03/28 23:30:28;;;;;;;10.63;5.03;;;;;;;11.24;61.45;99949.00;10257629;28;20238;-72
2022/03/28 23:35:31;;;;;;;10.97;5.33;;;;;;;11.13;61.49;99937.13;10257619;29;20216;-72
2022/03/28 23:40:35;;;;;;;12.87;5.60;;;;;;;10.96;62.09;99929.63;10257514;28;20319;-72